TOURFACTS.DK  
Stats and Facts from Tour de France.

Tour de France 2019 starts in 320 days
  Riders   Stages   Teams   Summits   Yearly  


 
Search by year

After 2018 - Stage 21:
 15000 starters.
  5165 different riders.
  638 teams.
  2253 stages.
  456 restdays.
  442940.60 km.
  5684 abandonnees.


Top 3
GC
Geraint Thomas83:17:13
Tom Dumoulin83:19:04
Christopher Froome83:19:37
Climb
Julian Alaphilippe170 pt.
Warren Barguil91 pt.
Rafal Majka76 pt.
Sprint
Peter Sagan477 pt.
Alexander Kristoff246 pt.
Arnaud Démare203 pt.
Youth
Pierre-Roger Latou..83:39:26
Egan Bernal83:45:05
Guillaume Martin84:01:31
Facts from Tour de France 2017
  |   Stages.  |   Stage winners.  |   Days in yellow  |   Average speed.  |   Route.  |   Teams.  |   All riders.  |   Rookies.  |  

  |   Withdrawls.  |   GC.  |   Polka  |   Green  |   White  |   Summits. (In tour)  |   Miscellaneous.  |  

Stage 5 on 05 - 07 - 2017
         Owning:    Christopher Froome      Fabio Aru      Arnaud Démare      Simon Yates  

Pick a stage:  1 2 3 4 5 6 7 8 9 10 11 12 13 14 15 16 17 18 19 20 21
  VittelLa Planche-des-Belles-Filles | Dist: 160.50 km.
Cat: 3Côte d'EsmoulièresBELJan Bakelants2 points 
Cat: 1La Planche des Belles FillesITAFabio Aru10 points 

Average speed for all riders in stage:  41,209 km./hr.
    Place:Name:Team:Time:Km/h:
1
ITAFabio AruKAZAstana Pro Team03:44:06  +  00:00:00=42,972 
2
ENGDaniel MartinBELQuick-Step Floors03:44:22  +  00:00:16=42,921 
3
KENChristopher FroomeGBRSky Procycling03:44:26  +  00:00:20=42,908 
44 AUSRichie PorteUSABMC Racing Team03:44:26  +  00:00:20=42,908 
55 FRARomain BardetFRAAg2r La Mondiale03:44:30  +  00:00:24=42,895 
66 ENGSimon YatesAUSOrica - Scott03:44:32  +  00:00:26=42,889 
77 COLRigoberto UránUSACannondale-Drapac Pro Cycling ..03:44:32  +  00:00:26=42,889 
88 ESPAlberto ContadorUSATrek - Segafredo03:44:32  +  00:00:26=42,889 
99 COLNairo QuintanaESPMovistar Team03:44:40  +  00:00:34=42,864 
1010 WALGeraint ThomasGBRSky Procycling03:44:46  +  00:00:40=42,844 
1111 RSALouis MeintjesUAEUAE Team Emirates03:44:46  +  00:00:40=42,844 
1212 POLRafal MajkaDEUBora–Hansgrohe03:44:46  +  00:00:40=42,844 
1313 FRANicolas RocheUSABMC Racing Team03:45:11  +  00:01:05=42,765 
1414 NZLGeorge BennettNLDTeam Lotto NL - Jumbo03:45:13  +  00:01:07=42,759 
1515 ESPMikel Landa MeanaGBRSky Procycling03:45:13  +  00:01:07=42,759 
1616 SUIJakob FuglsangKAZAstana Pro Team03:45:13  +  00:01:07=42,759 
1717 FRAPierre-Roger LatourFRAAg2r La Mondiale03:45:16  +  00:01:10=42,749 
1818 BELSerge PauwelsZAFDimension Data03:45:16  +  00:01:10=42,749 
1919 FRAGuillaume MartinBELWanty – Groupe Gobert03:45:19  +  00:01:13=42,740 
2020 ITADamiano CarusoUSABMC Racing Team03:45:19  +  00:01:13=42,740 
2121 USAAndrew TalanskyUSACannondale-Drapac Pro Cycling ..03:45:19  +  00:01:13=42,740 
2222 GEREmanuel BuchmannDEUBora–Hansgrohe03:45:23  +  00:01:17=42,727 
2323 ESPMikel NieveGBRSky Procycling03:45:23  +  00:01:17=42,727 
2424 COLSergio Luis HenaoGBRSky Procycling03:45:42  +  00:01:36=42,667 
2525 NEDLaurens ten DamDEUTeam Sunweb03:45:45  +  00:01:39=42,658 
2626 BELTiesj BenootBELLotto Soudal03:45:49  +  00:01:43=42,645 
2727 SUIMathias FrankFRAAg2r La Mondiale03:45:53  +  00:01:47=42,633 
2828 BELTim WellensBELLotto Soudal03:45:53  +  00:01:47=42,633 
2929 POLMichal KwiatkowskiGBRSky Procycling03:45:58  +  00:01:52=42,617 
3030 SLOJanez BrajkovicBHRBahrain-Merida03:46:00  +  00:01:54=42,611 
3131 COLJohan Esteban ChavesAUSOrica - Scott03:46:05  +  00:01:59=42,595 
3232 NEDBauke MollemaUSATrek - Segafredo03:46:05  +  00:01:59=42,595 
3333 CZEOndrej CinkBHRBahrain-Merida03:46:05  +  00:01:59=42,595 
3434 CZERoman KreuzigerAUSOrica - Scott03:46:19  +  00:02:13=42,551 
3535 FRABrice FeilluFRAFortuneo - Vital Concept03:46:23  +  00:02:17=42,538 
3636 FRALilian CalmejaneFRADirect Energie03:46:30  +  00:02:24=42,517 
3737 FRAPierre RollandUSACannondale-Drapac Pro Cycling ..03:46:30  +  00:02:24=42,517 
3838 ARGEduardo SepulvedaFRAFortuneo - Vital Concept03:46:32  +  00:02:26=42,510 
3939 FRASylvain ChavanelFRADirect Energie03:46:32  +  00:02:26=42,510 
4040 FRANicolas EdetFRACofidis – Solutions Crédits03:46:40  +  00:02:34=42,485 
4141 FRAAlexis VuillermozFRAAg2r La Mondiale03:46:57  +  00:02:51=42,432 
4242 COLCarlos Alberto BetancurESPMovistar Team03:46:57  +  00:02:51=42,432 
4343 BELThomas DegandBELWanty – Groupe Gobert03:47:08  +  00:03:02=42,398 
4444 NEDMaurits LammertinkCHETeam Katusha - Alpecin03:47:12  +  00:03:06=42,386 
4545 FRARudy MolardFRAFDJ03:47:14  +  00:03:08=42,379 
4646 FRARomain HardyFRAFortuneo - Vital Concept03:47:28  +  00:03:22=42,336 
4747 SLOPrimoz RoglicNLDTeam Lotto NL - Jumbo03:47:31  +  00:03:25=42,327 
4848 HRVRobert KiserlovskiCHETeam Katusha - Alpecin03:47:31  +  00:03:25=42,327 
4949 FRAElie GesbertFRAFortuneo - Vital Concept03:47:47  +  00:03:41=42,277 
5050 NEDMarco MinnaardBELWanty – Groupe Gobert03:47:56  +  00:03:50=42,249 
5151 BELJan BakelantsFRAAg2r La Mondiale03:48:08  +  00:04:02=42,212 
5252 FRAThibaut PinotFRAFDJ03:48:17  +  00:04:11=42,184 
5353 FRAMaxime BouetFRAFortuneo - Vital Concept03:48:29  +  00:04:23=42,147 
5454 COLJarlinson Pantano GomezUSATrek - Segafredo03:48:35  +  00:04:29=42,129 
5555 FRATony GallopinBELLotto Soudal03:48:43  +  00:04:37=42,104 
5656 ESPJavier Moreno BazánBHRBahrain-Merida03:48:46  +  00:04:40=42,095 
5757 FRAWarren BarguilDEUTeam Sunweb03:48:46  +  00:04:40=42,095 
5858 FRAArthur VichotFRAFDJ03:48:50  +  00:04:44=42,083 
5959 ESPJonathan CastroviejoESPMovistar Team03:48:55  +  00:04:49=42,068 
6060 ESPLuis Angel MateFRACofidis – Solutions Crédits03:49:07  +  00:05:01=42,031 
6161 KAZAlexey LutsenkoKAZAstana Pro Team03:49:39  +  00:05:33=41,933 
6262 AUSJay McCarthyDEUBora–Hansgrohe03:49:54  +  00:05:48=41,888 
6363 BELPhilippe GilbertBELQuick-Step Floors03:50:17  +  00:06:11=41,818 
6464 PORTiago PintoCHETeam Katusha - Alpecin03:50:27  +  00:06:21=41,788 
6565 ITADiego UlissiUAEUAE Team Emirates03:50:57  +  00:06:51=41,697 
6666 ITAManuele MoriUAEUAE Team Emirates03:50:57  +  00:06:51=41,697 
6767 GERGianluca BrambillaBELQuick-Step Floors03:50:57  +  00:06:51=41,697 
6868 ESPHaimar ZubeldiaUSATrek - Segafredo03:50:57  +  00:06:51=41,697 
6969 FRAThomas VoecklerFRADirect Energie03:51:34  +  00:07:28=41,586 
7070 USANathan BrownUSACannondale-Drapac Pro Cycling ..03:51:34  +  00:07:28=41,586 
7171 AUSDamien HowsonAUSOrica - Scott03:52:00  +  00:07:54=41,509 
7272 RSADaryl ImpeyAUSOrica - Scott03:52:13  +  00:08:07=41,470 
7373 BELOliver NaesenFRAAg2r La Mondiale03:52:13  +  00:08:07=41,470 
7474 LUXBen GastauerFRAAg2r La Mondiale03:52:13  +  00:08:07=41,470 
7575 FRACyril GautierFRAAg2r La Mondiale03:52:13  +  00:08:07=41,470 
7676 GERSimon GeschkeDEUTeam Sunweb03:52:17  +  00:08:11=41,458 
7777 BELJulien VermoteBELQuick-Step Floors03:53:08  +  00:09:02=41,307 
7878 ITAMarco MarcatoUAEUAE Team Emirates03:53:08  +  00:09:02=41,307 
7979 HRVKristijan DurasekUAEUAE Team Emirates03:53:08  +  00:09:02=41,307 
8080 ITAMatteo BonoUAEUAE Team Emirates03:53:08  +  00:09:02=41,307 
8181 COLDarwin AtapumaUAEUAE Team Emirates03:53:08  +  00:09:02=41,307 
8282 FRAPerrig QuemeneurFRADirect Energie03:53:08  +  00:09:02=41,307 
8383 FRAPierre-Luc PérichonFRAFortuneo - Vital Concept03:53:16  +  00:09:10=41,283 
8484 ITAAlberto BettiolUSACannondale-Drapac Pro Cycling ..03:53:19  +  00:09:13=41,274 
8585 FRARomain SicardFRADirect Energie03:53:25  +  00:09:19=41,257 
8686 NZLPaddy BevinUSACannondale-Drapac Pro Cycling ..03:53:25  +  00:09:19=41,257 
8787 GERChristian KneesGBRSky Procycling03:54:05  +  00:09:59=41,139 
8888 AUSAdam HansenBELLotto Soudal03:54:05  +  00:09:59=41,139 
8989 AUSSimon ClarkeUSACannondale-Drapac Pro Cycling ..03:54:05  +  00:09:59=41,139 
9090 GERPaul MartensNLDTeam Lotto NL - Jumbo03:54:05  +  00:09:59=41,139 
9191 NEDRobert GesinkNLDTeam Lotto NL - Jumbo03:54:05  +  00:09:59=41,139 
9292 ESPDaniel NavarroFRACofidis – Solutions Crédits03:54:05  +  00:09:59=41,139 
9393 NORVegard Stake LaengenUAEUAE Team Emirates03:54:11  +  00:10:05=41,122 
9494 NOREdvald Boasson HagenZAFDimension Data03:54:11  +  00:10:05=41,122 
9595 BELJens KeukeleireAUSOrica - Scott03:54:11  +  00:10:05=41,122 
9696 GERMarcus BurghardtDEUBora–Hansgrohe03:54:20  +  00:10:14=41,095 
9797 FRAYoann OffredoBELWanty – Groupe Gobert03:54:44  +  00:10:38=41,025 
9898 BELFrederik BackaertBELWanty – Groupe Gobert03:54:44  +  00:10:38=41,025 
9999 DENLars BakBELLotto Soudal03:54:44  +  00:10:38=41,025 
100100 GERTony MartinCHETeam Katusha - Alpecin03:54:44  +  00:10:38=41,025 
101101 GERJasha SütterlinESPMovistar Team03:54:53  +  00:10:47=40,999 
102102 ESPJesus HerradaESPMovistar Team03:54:53  +  00:10:47=40,999 
103103 ESPImanol ErvitiESPMovistar Team03:54:53  +  00:10:47=40,999 
104104 CRCAndrey AmadorESPMovistar Team03:54:53  +  00:10:47=40,999 
105105 RSAReinardt Janse Van RensburgZAFDimension Data03:54:53  +  00:10:47=40,999 
106106 CZEZdenek StybarBELQuick-Step Floors03:55:02  +  00:10:56=40,973 
107107 NZLJack BauerBELQuick-Step Floors03:55:02  +  00:10:56=40,973 
108108 BELGreg Van AvermaetUSABMC Racing Team03:55:02  +  00:10:56=40,973 
109109 GERNikias ArndtDEUTeam Sunweb03:55:16  +  00:11:10=40,932 
110110 NEDMike TeunissenDEUTeam Sunweb03:55:16  +  00:11:10=40,932 
111111 JPNYukiya ArashiroBHRBahrain-Merida03:55:17  +  00:11:11=40,929 
112112 FRAAxel DomontFRAAg2r La Mondiale03:55:20  +  00:11:14=40,921 
113113 FRAAngelo TulikFRADirect Energie03:55:20  +  00:11:14=40,921 
114114 NEDTimo RoosenNLDTeam Lotto NL - Jumbo03:55:20  +  00:11:14=40,921 
115115 BELPieter VanspeybrouckBELWanty – Groupe Gobert03:55:20  +  00:11:14=40,921 
116116 KAZAndrey ZeitsKAZAstana Pro Team03:55:20  +  00:11:14=40,921 
117117 NEDDylan Van BaarleUSACannondale-Drapac Pro Cycling ..03:55:32  +  00:11:26=40,886 
118118 BLRVasil KiryienkaGBRSky Procycling03:55:32  +  00:11:26=40,886 
119119 BELThomas De GendtBELLotto Soudal03:56:04  +  00:11:58=40,794 
120120 GERRick ZabelCHETeam Katusha - Alpecin03:56:04  +  00:11:58=40,794 
121121 NEDKoen De KortUSATrek - Segafredo03:56:04  +  00:11:58=40,794 
122122 KAZBakhtiyar KozhatayevKAZAstana Pro Team03:56:04  +  00:11:58=40,794 
123123 NZLDion SmithBELWanty – Groupe Gobert03:56:04  +  00:11:58=40,794 
124124 FRAJulien SimonFRACofidis – Solutions Crédits03:56:04  +  00:11:58=40,794 
125125 ESPMarkel IrizarUSATrek - Segafredo03:56:04  +  00:11:58=40,794 
126126 FRACyril LemoineFRACofidis – Solutions Crédits03:56:04  +  00:11:58=40,794 
127127 ENGScott ThwaitesZAFDimension Data03:56:04  +  00:11:58=40,794 
128128 SUIMichael AlbasiniAUSOrica - Scott03:56:04  +  00:11:58=40,794 
129129 ITADario CataldoKAZAstana Pro Team03:56:04  +  00:11:58=40,794 
130130 ITAAndrea PasqualonBELWanty – Groupe Gobert03:56:04  +  00:11:58=40,794 
131131 NEDJos Van EmdenNLDTeam Lotto NL - Jumbo03:56:04  +  00:11:58=40,794 
132132 SUIDanilo WyssUSABMC Racing Team03:56:04  +  00:11:58=40,794 
133133 BELJürgen RoelandtsBELLotto Soudal03:56:04  +  00:11:58=40,794 
134134 ETHTsgabu Gebremaryan GrmayBHRBahrain-Merida03:56:04  +  00:11:58=40,794 
135135 KAZDmitriy GruzdevKAZAstana Pro Team03:56:11  +  00:12:05=40,773 
136136 ITAAlessandro De MarchiUSABMC Racing Team03:57:33  +  00:13:27=40,539 
137137 ITAFabio FellineUSATrek - Segafredo03:57:49  +  00:13:43=40,493 
138138 FRAAdrien PetitFRADirect Energie03:57:53  +  00:13:47=40,482 
139139 SUIReto HollensteinCHETeam Katusha - Alpecin03:57:57  +  00:13:51=40,471 
140140 ITADaniele BennatiESPMovistar Team03:57:57  +  00:13:51=40,471 
141141 POLMaciej BodnarDEUBora–Hansgrohe03:57:57  +  00:13:51=40,471 
142142 AUSMichael MatthewsDEUTeam Sunweb03:58:19  +  00:14:13=40,408 
143143 UKRAndriy GrivkoKAZAstana Pro Team03:58:31  +  00:14:25=40,375 
144144 AUTMichael GoglUSATrek - Segafredo03:58:31  +  00:14:25=40,375 
145145 FRAYohann GèneFRADirect Energie03:58:34  +  00:14:28=40,366 
146146 ITAFabio SabatiniBELQuick-Step Floors03:59:13  +  00:15:07=40,256 
147147 NEDRoy CurversDEUTeam Sunweb03:59:13  +  00:15:07=40,256 
148148 GERNils PolittCHETeam Katusha - Alpecin03:59:13  +  00:15:07=40,256 
149149 BELDimitri ClaeysFRACofidis – Solutions Crédits03:59:16  +  00:15:10=40,248 
150150 FRALaurent PichonFRAFortuneo - Vital Concept03:59:17  +  00:15:11=40,245 
151151 FRAThomas BoudatFRADirect Energie03:59:17  +  00:15:11=40,245 
152152 DENMichael ValgrenKAZAstana Pro Team03:59:17  +  00:15:11=40,245 
153153 FRANacer BouhanniFRACofidis – Solutions Crédits03:59:17  +  00:15:11=40,245 
154154 FRAAmaël MoinardUSABMC Racing Team03:59:17  +  00:15:11=40,245 
155155 FRAFlorian SénéchalFRACofidis – Solutions Crédits03:59:17  +  00:15:11=40,245 
156156 POLPawel PoljanskiDEUBora–Hansgrohe03:59:17  +  00:15:11=40,245 
157157 NEDRamon SinkeldamDEUTeam Sunweb03:59:22  +  00:15:16=40,231 
158158 FRAFlorian VachonFRAFortuneo - Vital Concept03:59:24  +  00:15:18=40,226 
159159 NEDTom LeezerNLDTeam Lotto NL - Jumbo03:59:25  +  00:15:19=40,223 
160160 ITASonny ColbrelliBHRBahrain-Merida03:59:30  +  00:15:24=40,209 
161161 SLOGrega BoleBHRBahrain-Merida03:59:30  +  00:15:24=40,209 
162162 SLOBorut BozicBHRBahrain-Merida03:59:32  +  00:15:26=40,203 
163163 AUSMark RenshawZAFDimension Data03:59:49  +  00:15:43=40,156 
164164 NEDAlbert TimmerDEUTeam Sunweb03:59:53  +  00:15:47=40,145 
165165 GERMarcel KittelBELQuick-Step Floors03:59:53  +  00:15:47=40,145 
166166 GERJohn DegenkolbUSATrek - Segafredo03:59:53  +  00:15:47=40,145 
167167 ENGStephen CummingsZAFDimension Data03:59:53  +  00:15:47=40,145 
168168 NEDDylan GroenewegenNLDTeam Lotto NL - Jumbo03:59:53  +  00:15:47=40,145 
169169 SVKJuraj SaganDEUBora–Hansgrohe04:00:07  +  00:16:01=40,106 
170170 AUSMathew HaymanAUSOrica - Scott04:00:21  +  00:16:15=40,067 
171171 AUTBernhard EiselZAFDimension Data04:00:21  +  00:16:15=40,067 
172172 ENGBen SwiftUAEUAE Team Emirates04:00:22  +  00:16:16=40,064 
173173 WALLuke RoweGBRSky Procycling04:00:22  +  00:16:16=40,064 
174174 SUIMichael SchärUSABMC Racing Team04:00:27  +  00:16:21=40,050 
175175 SUIStefan KüngUSABMC Racing Team04:00:27  +  00:16:21=40,050 
176176 FRAChristophe LaporteFRACofidis – Solutions Crédits04:00:40  +  00:16:34=40,014 
177177 ENGDaniel McLayFRAFortuneo - Vital Concept04:03:22  +  00:19:16=39,570 
178178 GERMarcel SiebergBELLotto Soudal04:03:43  +  00:19:37=39,513 
179179 GERRobert WagnerNLDTeam Lotto NL - Jumbo04:03:43  +  00:19:37=39,513 
180180 GERAndré GreipelBELLotto Soudal04:03:43  +  00:19:37=39,513 
181181 RSAJaco VenterZAFDimension Data04:03:43  +  00:19:37=39,513 
182182 AUTMarco HallerCHETeam Katusha - Alpecin04:03:43  +  00:19:37=39,513 
183183 USATaylor PhinneyUSACannondale-Drapac Pro Cycling ..04:03:46  +  00:19:40=39,505 
184184 FRAMickael DelageFRAFDJ04:03:55  +  00:19:49=39,481 
185185 URSIgnatas KonovalovasFRAFDJ04:03:55  +  00:19:49=39,481 
186186 BELGuillaume Van KeirsbulckBELWanty – Groupe Gobert04:03:55  +  00:19:49=39,481 
187187 FRAArnaud DémareFRAFDJ04:03:55  +  00:19:49=39,481 
188188 DDRRüdiger SeligDEUBora–Hansgrohe04:03:55  +  00:19:49=39,481 
189189 NORAlexander KristoffCHETeam Katusha - Alpecin04:03:55  +  00:19:49=39,481 
190190 FRAOlivier Le GacFRAFDJ04:04:35  +  00:20:29=39,373 
191191 ITAMatteo TrentinBELQuick-Step Floors04:05:01  +  00:20:55=39,303 
192192 ITADavide CimolaiFRAFDJ04:06:53  +  00:22:47=39,006 
193193 ITAJacopo GuarnieriFRAFDJ04:06:56  +  00:22:50=38,998 

Withdrawls: 1
 
Rider
Team
Reason
91  IOMMark CavendishZAFDimension DataDid not start
Todays birthdays.

1878  Jean Novo
1883  Jules Chabas
1890  Ange Aubry
1893  Roger Marye
1913  Paul Maye
1914  Lucien Vlaemynck
1915  Alphonse Antoine
1932  Rolf Graf
1953  Julio Rubiano
1959  Jos Haex
1959  Gerard Veldscholten
1963  Pablo Moreno
1964  Juan Castillo
1977  Iban Mayo
1994  Fernando Gaviria